createdAt,value
2022-12-18T00:00:12.734Z,101683.72
2022-12-18T00:03:04.687Z,101687.57
2022-12-18T00:05:33.856Z,101689.67
2022-12-18T00:08:03.177Z,101690.81
2022-12-18T00:10:39.119Z,101696.56
2022-12-18T00:13:10.163Z,101698.20
2022-12-18T00:15:40.496Z,101700.54
2022-12-18T00:18:09.709Z,101700.52
2022-12-18T00:20:39.717Z,101703.52
2022-12-18T00:23:09.453Z,101706.92
2022-12-18T00:25:38.649Z,101712.97
2022-12-18T00:28:08.104Z,101713.27
2022-12-18T00:30:37.080Z,101717.27
2022-12-18T00:33:06.193Z,101715.86
2022-12-18T00:35:35.105Z,101717.16
2022-12-18T00:38:04.334Z,101718.34
2022-12-18T00:40:33.667Z,101723.08
2022-12-18T00:43:02.675Z,101727.88
2022-12-18T00:45:32.602Z,101734.23
2022-12-18T00:48:01.947Z,101738.61
2022-12-18T00:50:30.989Z,101739.17
2022-12-18T00:52:59.979Z,101742.64
2022-12-18T00:55:29.471Z,101740.99
2022-12-18T00:57:59.664Z,101743.83
2022-12-18T01:00:28.786Z,101750.45
2022-12-18T01:02:58.036Z,101754.21
2022-12-18T01:05:28.636Z,101749.95
2022-12-18T01:07:58.215Z,101754.59
2022-12-18T01:10:27.388Z,101756.62
2022-12-18T01:13:00.369Z,101758.35
2022-12-18T01:15:29.563Z,101765.70
2022-12-18T01:17:58.918Z,101768.34
2022-12-18T01:20:29.863Z,101767.80
2022-12-18T01:22:58.847Z,101766.91
2022-12-18T01:25:30.100Z,101769.52
2022-12-18T01:27:59.148Z,101773.08
2022-12-18T01:30:28.378Z,101772.77
2022-12-18T01:32:58.241Z,101776.97
2022-12-18T01:35:27.996Z,101781.11
2022-12-18T01:37:57.380Z,101788.48
2022-12-18T01:40:26.205Z,101793.98
2022-12-18T01:42:55.717Z,101797.67
2022-12-18T01:45:27.054Z,101802.39
2022-12-18T01:47:56.784Z,101806.41
2022-12-18T01:50:28.262Z,101805.73
2022-12-18T01:52:59.548Z,101807.36
2022-12-18T01:55:31.389Z,101809.17
2022-12-18T01:58:01.824Z,101808.06
2022-12-18T02:00:31.163Z,101815.10
2022-12-18T02:03:00.792Z,101817.98
2022-12-18T02:05:42.528Z,101819.37
2022-12-18T02:08:16.789Z,101825.77
2022-12-18T02:10:49.205Z,101828.27
2022-12-18T02:13:21.770Z,101832.40
2022-12-18T02:15:56.422Z,101834.81
2022-12-18T02:18:27.557Z,101843.84
2022-12-18T02:20:59.597Z,101846.95
2022-12-18T02:23:40.289Z,101846.62
2022-12-18T02:26:14.052Z,101855.33
2022-12-18T02:28:45.424Z,101861.02
2022-12-18T02:31:16.039Z,101862.35
2022-12-18T02:33:46.430Z,101863.23
2022-12-18T02:36:17.757Z,101864.15
2022-12-18T02:38:48.098Z,101870.58
2022-12-18T02:41:19.018Z,101874.29
2022-12-18T02:43:54.723Z,101879.51
2022-12-18T02:46:27.265Z,101876.56
2022-12-18T02:49:03.181Z,101874.12
2022-12-18T02:51:38.430Z,101874.60
2022-12-18T02:54:11.871Z,101874.58
2022-12-18T02:56:44.864Z,101883.13
2022-12-18T02:59:15.824Z,101895.55
2022-12-18T03:01:52.905Z,101899.45
2022-12-18T03:04:25.384Z,101907.62
2022-12-18T03:06:56.386Z,101910.18
2022-12-18T03:09:29.693Z,101918.73
2022-12-18T03:12:20.384Z,101928.06
2022-12-18T03:14:52.761Z,101928.13
2022-12-18T03:17:22.168Z,101926.60
2022-12-18T03:19:53.603Z,101932.10
2022-12-18T03:22:24.513Z,101932.20
2022-12-18T03:24:55.257Z,101939.30
2022-12-18T03:27:25.711Z,101945.70
2022-12-18T03:30:08.049Z,101947.80
2022-12-18T03:32:41.611Z,101949.68
2022-12-18T03:35:12.517Z,101951.42
2022-12-18T03:37:41.770Z,101951.13
2022-12-18T03:40:11.827Z,101952.81
2022-12-18T03:42:47.067Z,101955.30
2022-12-18T03:45:20.925Z,101950.03
2022-12-18T03:47:55.028Z,101953.52
2022-12-18T03:50:34.935Z,101952.36
2022-12-18T03:53:07.965Z,101955.46
2022-12-18T03:55:37.591Z,101961.41
2022-12-18T03:58:08.688Z,101968.23
2022-12-18T04:00:57.101Z,101968.10
2022-12-18T04:03:27.349Z,101969.69
2022-12-18T04:05:57.186Z,101973.22
2022-12-18T04:08:27.060Z,101981.41
2022-12-18T04:11:06.101Z,101986.21
2022-12-18T04:13:37.077Z,101995.66
2022-12-18T04:16:10.030Z,102001.65
2022-12-18T04:18:41.378Z,102004.67
2022-12-18T04:21:11.693Z,102007.46
2022-12-18T04:23:41.080Z,102008.70
2022-12-18T04:26:10.844Z,102018.98
2022-12-18T04:28:50.251Z,102024.04
2022-12-18T04:31:19.506Z,102027.58
2022-12-18T04:33:50.176Z,102023.80
2022-12-18T04:36:19.797Z,102022.85
2022-12-18T04:38:49.874Z,102032.26
2022-12-18T04:41:19.552Z,102035.11
2022-12-18T04:43:49.730Z,102036.04
2022-12-18T04:46:19.228Z,102036.60
2022-12-18T04:48:48.627Z,102042.72
2022-12-18T04:51:20.843Z,102042.05
2022-12-18T04:53:54.254Z,102044.60
2022-12-18T04:56:23.352Z,102045.17
2022-12-18T04:58:52.071Z,102046.86
2022-12-18T05:01:21.436Z,102048.79
2022-12-18T05:03:52.096Z,102053.24
2022-12-18T05:06:21.380Z,102055.45
2022-12-18T05:08:50.833Z,102062.62
2022-12-18T05:11:20.070Z,102074.25
2022-12-18T05:13:49.547Z,102078.72
2022-12-18T05:16:18.738Z,102080.15
2022-12-18T05:18:47.652Z,102081.44
2022-12-18T05:21:16.916Z,102087.35
2022-12-18T05:23:45.645Z,102089.45
2022-12-18T05:26:16.245Z,102094.70
2022-12-18T05:28:45.542Z,102103.10
2022-12-18T05:31:15.053Z,102105.95
2022-12-18T05:33:44.395Z,102105.41
2022-12-18T05:36:13.846Z,102106.17
2022-12-18T05:38:43.124Z,102109.66
2022-12-18T05:41:12.255Z,102109.88
2022-12-18T05:43:42.394Z,102113.75
2022-12-18T05:46:13.618Z,102120.50
2022-12-18T05:48:42.549Z,102122.36
2022-12-18T05:51:12.943Z,102125.60
2022-12-18T05:53:42.893Z,102120.02
2022-12-18T05:56:13.477Z,102121.71
2022-12-18T05:58:43.011Z,102125.52
2022-12-18T06:01:12.739Z,102128.60
2022-12-18T06:03:42.093Z,102131.13
2022-12-18T06:06:18.843Z,102136.14
2022-12-18T06:08:48.256Z,102135.73
2022-12-18T06:11:19.306Z,102141.63
2022-12-18T06:13:54.785Z,102149.34
2022-12-18T06:16:28.304Z,102156.20
2022-12-18T06:18:58.419Z,102160.60
2022-12-18T06:21:27.555Z,102166.52
2022-12-18T06:23:57.221Z,102168.05
2022-12-18T06:26:28.583Z,102168.80
2022-12-18T06:28:58.857Z,102174.87
2022-12-18T06:31:28.268Z,102178.27
2022-12-18T06:33:58.424Z,102185.94
2022-12-18T06:36:27.761Z,102190.65
2022-12-18T06:38:58.743Z,102191.65
2022-12-18T06:41:28.091Z,102198.09
2022-12-18T06:43:59.900Z,102200.75
2022-12-18T06:46:29.757Z,102209.18
2022-12-18T06:48:59.022Z,102211.23
2022-12-18T06:51:28.185Z,102217.37
2022-12-18T06:53:57.663Z,102223.78
2022-12-18T06:56:26.371Z,102226.75
2022-12-18T06:58:55.858Z,102232.05
2022-12-18T07:01:25.310Z,102233.23
2022-12-18T07:03:54.971Z,102233.49
2022-12-18T07:06:24.998Z,102236.33
2022-12-18T07:08:54.806Z,102239.04
2022-12-18T07:11:23.988Z,102241.65
2022-12-18T07:13:53.573Z,102242.49
2022-12-18T07:16:25.585Z,102244.38
2022-12-18T07:18:55.848Z,102250.39
2022-12-18T07:21:25.780Z,102253.23
2022-12-18T07:23:55.368Z,102255.95
2022-12-18T07:26:25.240Z,102260.26
2022-12-18T07:28:55.821Z,102260.36
2022-12-18T07:31:25.608Z,102260.53
2022-12-18T07:33:54.508Z,102263.67
2022-12-18T07:36:23.798Z,102264.41
2022-12-18T07:38:53.198Z,102269.36
2022-12-18T07:41:23.092Z,102280.84
2022-12-18T07:43:52.025Z,102284.05
2022-12-18T07:46:21.094Z,102288.79
2022-12-18T07:48:50.876Z,102295.67
2022-12-18T07:51:20.557Z,102297.13
2022-12-18T07:53:52.389Z,102301.95
2022-12-18T07:56:30.756Z,102302.08
2022-12-18T07:59:01.337Z,102308.13
2022-12-18T08:01:30.975Z,102311.44
2022-12-18T08:03:59.733Z,102318.50
2022-12-18T08:06:29.278Z,102323.61
2022-12-18T08:08:58.400Z,102326.21
2022-12-18T08:11:28.349Z,102331.75
2022-12-18T08:13:57.571Z,102334.73
2022-12-18T08:16:27.046Z,102334.67
2022-12-18T08:18:56.680Z,102341.29
2022-12-18T08:21:27.135Z,102344.92
2022-12-18T08:23:58.741Z,102346.70
2022-12-18T08:26:29.041Z,102352.04
2022-12-18T08:28:58.885Z,102357.70
2022-12-18T08:31:29.328Z,102364.02
2022-12-18T08:33:58.866Z,102364.41
2022-12-18T08:36:28.389Z,102363.22
2022-12-18T08:38:58.154Z,102367.80
2022-12-18T08:41:28.163Z,102369.75
2022-12-18T08:44:15.909Z,102371.89
2022-12-18T08:46:45.734Z,102373.02
2022-12-18T08:49:14.770Z,102374.62
2022-12-18T08:51:44.392Z,102371.98
2022-12-18T08:54:13.922Z,102375.88
2022-12-18T08:56:43.487Z,102378.02
2022-12-18T08:59:19.145Z,102380.17
2022-12-18T09:01:50.049Z,102382.42
2022-12-18T09:04:19.471Z,102386.95
2022-12-18T09:06:48.685Z,102385.71
2022-12-18T09:09:17.579Z,102388.09
2022-12-18T09:11:46.885Z,102394.80
2022-12-18T09:14:16.192Z,102398.23
2022-12-18T09:16:45.315Z,102400.97
2022-12-18T09:19:14.473Z,102402.69
2022-12-18T09:21:47.984Z,102404.17
2022-12-18T09:24:18.557Z,102406.17
2022-12-18T09:26:47.961Z,102407.18
2022-12-18T09:29:18.924Z,102408.81
2022-12-18T09:31:50.142Z,102408.79
2022-12-18T09:34:21.647Z,102405.26
2022-12-18T09:36:51.569Z,102406.80
2022-12-18T09:39:22.449Z,102413.67
2022-12-18T09:41:54.666Z,102410.59
2022-12-18T09:44:25.713Z,102408.23
2022-12-18T09:47:04.480Z,102409.88
2022-12-18T09:49:36.940Z,102409.34
2022-12-18T09:52:10.142Z,102411.45
2022-12-18T09:54:41.033Z,102414.34
2022-12-18T09:57:14.330Z,102413.46
2022-12-18T09:59:45.628Z,102417.73
2022-12-18T10:02:16.511Z,102415.68
2022-12-18T10:04:48.432Z,102415.61
2022-12-18T10:07:21.511Z,102422.52
2022-12-18T10:09:55.090Z,102430.27
2022-12-18T10:12:32.177Z,102431.14
2022-12-18T10:15:05.190Z,102434.41
2022-12-18T10:17:39.188Z,102436.50
2022-12-18T10:20:12.148Z,102438.91
2022-12-18T10:22:46.319Z,102437.27
2022-12-18T10:25:23.713Z,102432.55
2022-12-18T10:27:54.713Z,102432.77
2022-12-18T10:30:24.808Z,102434.36
2022-12-18T10:32:54.915Z,102430.70
2022-12-18T10:35:25.410Z,102427.60
2022-12-18T10:38:05.069Z,102430.77
2022-12-18T10:40:37.821Z,102433.44
2022-12-18T10:43:12.157Z,102431.30
2022-12-18T10:45:41.308Z,102427.35
2022-12-18T10:48:20.457Z,102425.39
2022-12-18T10:53:41.634Z,102420.88
2022-12-18T10:56:11.028Z,102423.99
2022-12-18T10:58:41.091Z,102421.40
2022-12-18T11:01:12.524Z,102429.30
2022-12-18T11:03:43.260Z,102433.72
2022-12-18T11:06:13.283Z,102435.70
2022-12-18T11:08:43.117Z,102432.14
2022-12-18T11:11:21.315Z,102429.83
2022-12-18T11:14:00.649Z,102425.16
2022-12-18T11:16:31.421Z,102424.18
2022-12-18T11:19:14.552Z,102423.81
2022-12-18T11:21:44.070Z,102423.42
2022-12-18T11:24:20.569Z,102425.42
2022-12-18T11:26:56.275Z,102428.06
2022-12-18T11:29:35.967Z,102436.34
2022-12-18T11:32:32.141Z,102433.10
2022-12-18T11:35:04.351Z,102435.04
2022-12-18T11:37:34.577Z,102439.55
2022-12-18T11:40:08.062Z,102440.01
2022-12-18T11:42:40.548Z,102439.23
2022-12-18T11:45:27.110Z,102433.99
2022-12-18T11:47:59.290Z,102432.94
2022-12-18T11:50:31.995Z,102431.18
2022-12-18T11:53:05.896Z,102434.28
2022-12-18T11:55:38.280Z,102435.80
2022-12-18T11:58:14.364Z,102441.56
2022-12-18T12:00:46.564Z,102442.46
2022-12-18T12:03:23.488Z,102440.90
2022-12-18T12:06:00.190Z,102442.55
2022-12-18T12:08:35.733Z,102445.79
2022-12-18T12:11:08.915Z,102449.35
2022-12-18T12:13:45.755Z,102444.65
2022-12-18T12:16:18.587Z,102441.33
2022-12-18T12:18:57.707Z,102439.35
2022-12-18T12:21:30.155Z,102437.58
2022-12-18T12:24:06.946Z,102443.16
2022-12-18T12:26:41.348Z,102446.41
2022-12-18T12:29:21.405Z,102452.14
2022-12-18T12:32:01.286Z,102455.55
2022-12-18T12:34:35.708Z,102466.42
2022-12-18T12:37:13.667Z,102471.23
2022-12-18T12:39:45.042Z,102469.71
2022-12-18T12:42:38.342Z,102478.23
2022-12-18T12:45:15.407Z,102480.05
2022-12-18T12:47:45.781Z,102479.16
2022-12-18T12:50:17.493Z,102476.81
2022-12-18T12:52:47.634Z,102481.81
2022-12-18T12:55:18.491Z,102489.39
2022-12-18T12:57:57.509Z,102497.56
2022-12-18T13:00:30.800Z,102508.16
2022-12-18T13:03:07.594Z,102515.09
2022-12-18T13:05:41.903Z,102519.60
2022-12-18T13:08:12.434Z,102520.14
2022-12-18T13:10:42.095Z,102523.23
2022-12-18T13:13:13.017Z,102525.16
2022-12-18T13:15:43.813Z,102521.84
2022-12-18T13:18:18.108Z,102522.86
2022-12-18T13:20:53.110Z,102533.84
2022-12-18T13:23:30.289Z,102542.48
2022-12-18T13:26:00.534Z,102543.42
2022-12-18T13:28:43.846Z,102536.10
2022-12-18T13:31:13.430Z,102538.99
2022-12-18T13:34:23.991Z,102544.41
2022-12-18T13:36:36.922Z,102537.64
2022-12-18T13:39:30.306Z,102540.99
2022-12-18T13:42:36.223Z,102547.73
2022-12-18T13:45:29.670Z,102553.27
2022-12-18T13:47:59.121Z,102557.59
2022-12-18T13:50:35.425Z,102558.02
2022-12-18T13:53:06.857Z,102558.14
2022-12-18T13:55:36.672Z,102556.45
2022-12-18T13:58:06.090Z,102559.45
2022-12-18T14:00:35.586Z,102559.76
2022-12-18T14:03:22.388Z,102565.08
2022-12-18T14:05:57.443Z,102569.73
2022-12-18T14:08:28.697Z,102571.83
2022-12-18T14:10:58.266Z,102570.98
2022-12-18T14:13:29.925Z,102576.39
2022-12-18T14:16:03.854Z,102581.51
2022-12-18T14:18:38.410Z,102580.14
2022-12-18T14:21:08.188Z,102577.70
2022-12-18T14:23:38.882Z,102579.26
2022-12-18T14:26:23.325Z,102578.26
2022-12-18T14:28:54.500Z,102575.64
2022-12-18T14:31:25.964Z,102575.61
2022-12-18T14:33:55.849Z,102576.42
2022-12-18T14:36:25.629Z,102577.45
2022-12-18T14:38:55.702Z,102575.52
2022-12-18T14:41:25.561Z,102577.31
2022-12-18T14:43:56.114Z,102583.77
2022-12-18T14:46:34.514Z,102581.23
2022-12-18T14:49:05.653Z,102590.45
2022-12-18T14:51:36.101Z,102598.45
2022-12-18T14:54:16.653Z,102595.25
2022-12-18T14:56:47.600Z,102598.39
2022-12-18T14:59:23.989Z,102594.46
2022-12-18T15:01:59.365Z,102594.00
2022-12-18T15:04:32.508Z,102592.64
2022-12-18T15:07:16.242Z,102603.69
2022-12-18T15:10:03.477Z,102609.02
2022-12-18T15:12:38.792Z,102617.48
2022-12-18T15:15:28.519Z,102618.05
2022-12-18T15:18:02.630Z,102616.83
2022-12-18T15:20:38.713Z,102613.33
2022-12-18T15:23:17.030Z,102608.99
2022-12-18T15:25:49.158Z,102605.79
2022-12-18T15:28:25.497Z,102612.00
2022-12-18T15:31:17.750Z,102613.66
2022-12-18T15:34:03.842Z,102615.10
2022-12-18T15:36:37.711Z,102617.73
2022-12-18T15:39:08.677Z,102622.55
2022-12-18T15:42:08.549Z,102630.48
2022-12-18T15:44:39.364Z,102634.76
2022-12-18T15:47:15.735Z,102628.98
2022-12-18T15:49:50.790Z,102627.70
2022-12-18T15:52:27.753Z,102627.76
2022-12-18T15:55:19.009Z,102629.34
2022-12-18T15:57:52.117Z,102634.40
2022-12-18T16:00:28.858Z,102636.45
2022-12-18T16:03:04.838Z,102638.13
2022-12-18T16:05:37.710Z,102633.58
2022-12-18T16:08:13.151Z,102635.20
2022-12-18T16:10:44.657Z,102629.85
2022-12-18T16:13:16.342Z,102628.05
2022-12-18T16:15:50.035Z,102633.66
2022-12-18T16:18:24.270Z,102640.80
2022-12-18T16:20:57.708Z,102640.14
2022-12-18T16:23:30.678Z,102636.14
2022-12-18T16:26:02.699Z,102631.30
2022-12-18T16:28:33.999Z,102631.73
2022-12-18T16:31:04.956Z,102633.95
2022-12-18T16:33:35.558Z,102638.66
2022-12-18T16:36:08.421Z,102637.27
2022-12-18T16:38:42.984Z,102636.84
2022-12-18T16:41:33.249Z,102637.43
2022-12-18T16:44:05.768Z,102641.65
2022-12-18T16:46:37.067Z,102637.80
2022-12-18T16:49:08.117Z,102638.64
2022-12-18T16:51:40.621Z,102640.10
2022-12-18T16:54:18.689Z,102649.23
2022-12-18T16:56:52.522Z,102658.77
2022-12-18T16:59:33.067Z,102677.55
2022-12-18T17:02:06.652Z,102680.42
2022-12-18T17:04:40.421Z,102675.45
2022-12-18T17:07:11.629Z,102675.39
2022-12-18T17:09:43.837Z,102671.48
2022-12-18T17:12:15.784Z,102672.90
2022-12-18T17:14:46.562Z,102672.76
2022-12-18T17:17:22.994Z,102673.48
2022-12-18T17:19:57.819Z,102677.33
2022-12-18T17:22:32.108Z,102671.61
2022-12-18T17:25:07.897Z,102667.52
2022-12-18T17:27:41.435Z,102669.63
2022-12-18T17:30:16.995Z,102672.45
2022-12-18T17:32:48.828Z,102676.23
2022-12-18T17:35:22.779Z,102676.05
2022-12-18T17:37:56.096Z,102675.48
2022-12-18T17:40:28.107Z,102675.18
2022-12-18T17:43:15.662Z,102678.60
2022-12-18T17:45:47.206Z,102682.06
2022-12-18T17:48:19.026Z,102682.59
2022-12-18T17:50:54.779Z,102687.75
2022-12-18T17:53:28.663Z,102693.86
2022-12-18T17:56:01.460Z,102699.93
2022-12-18T17:58:39.746Z,102702.25
2022-12-18T18:01:14.983Z,102697.90
2022-12-18T18:03:49.936Z,102701.89
2022-12-18T18:06:25.705Z,102704.80
2022-12-18T18:08:57.871Z,102700.00
2022-12-18T18:11:48.619Z,102698.38
2022-12-18T18:14:25.852Z,102703.03
2022-12-18T18:17:04.940Z,102704.47
2022-12-18T18:19:38.030Z,102705.77
2022-12-18T18:22:10.581Z,102703.87
2022-12-18T18:24:43.972Z,102701.54
2022-12-18T18:27:15.870Z,102705.05
2022-12-18T18:29:48.137Z,102703.10
2022-12-18T18:32:20.359Z,102697.23
2022-12-18T18:34:52.353Z,102699.75
2022-12-18T18:37:25.056Z,102698.55
2022-12-18T18:39:56.543Z,102697.06
2022-12-18T18:42:32.735Z,102695.06
2022-12-18T18:45:04.311Z,102694.92
2022-12-18T18:47:36.781Z,102691.09
2022-12-18T18:50:08.011Z,102697.88
2022-12-18T18:52:43.660Z,102695.91
2022-12-18T18:55:25.308Z,102689.39
2022-12-18T18:57:58.023Z,102682.73
2022-12-18T19:00:39.510Z,102672.47
2022-12-18T19:03:13.740Z,102685.93
2022-12-18T19:05:52.382Z,102707.64
2022-12-18T19:08:28.983Z,102712.61
2022-12-18T19:11:02.147Z,102710.41
2022-12-18T19:13:35.270Z,102700.58
2022-12-18T19:16:07.242Z,102697.14
2022-12-18T19:18:38.982Z,102694.67
2022-12-18T19:21:12.739Z,102693.98
2022-12-18T19:23:43.937Z,102696.71
2022-12-18T19:26:27.501Z,102707.85
2022-12-18T19:29:03.497Z,102718.98
2022-12-18T19:31:37.827Z,102722.03
2022-12-18T19:34:09.539Z,102729.31
2022-12-18T19:36:41.504Z,102733.17
2022-12-18T19:39:13.979Z,102739.13
2022-12-18T19:41:48.971Z,102736.48
2022-12-18T19:44:20.595Z,102734.77
2022-12-18T19:46:55.140Z,102729.41
2022-12-18T19:49:27.519Z,102730.67
2022-12-18T19:52:03.053Z,102728.59
2022-12-18T19:54:33.861Z,102726.07
2022-12-18T19:57:07.943Z,102721.64
2022-12-18T19:59:41.704Z,102716.02
2022-12-18T20:02:14.802Z,102719.41
2022-12-18T20:04:45.806Z,102714.33
2022-12-18T20:07:16.613Z,102712.86
2022-12-18T20:09:57.113Z,102713.69
2022-12-18T20:12:33.232Z,102713.77
2022-12-18T20:15:05.271Z,102713.85
2022-12-18T20:17:38.208Z,102708.04
2022-12-18T20:20:09.377Z,102711.82
2022-12-18T20:22:41.492Z,102716.13
2022-12-18T20:25:14.013Z,102722.79
2022-12-18T20:27:48.514Z,102724.88
2022-12-18T20:30:18.985Z,102727.81
2022-12-18T20:32:49.665Z,102724.94
2022-12-18T20:35:24.459Z,102720.98
2022-12-18T20:37:57.384Z,102726.31
2022-12-18T20:40:31.855Z,102733.25
2022-12-18T20:43:02.820Z,102739.61
2022-12-18T20:45:32.151Z,102751.11
2022-12-18T20:48:03.110Z,102754.63
2022-12-18T20:50:33.976Z,102756.12
2022-12-18T20:53:07.385Z,102752.09
2022-12-18T20:55:45.296Z,102754.18
2022-12-18T20:58:18.865Z,102755.09
2022-12-18T21:00:50.205Z,102755.13
2022-12-18T21:03:27.988Z,102750.30
2022-12-18T21:05:57.419Z,102754.54
2022-12-18T21:08:28.548Z,102757.67
2022-12-18T21:10:58.653Z,102758.78
2022-12-18T21:13:28.319Z,102754.47
2022-12-18T21:15:59.630Z,102756.04
2022-12-18T21:18:29.363Z,102758.33
2022-12-18T21:20:58.653Z,102761.69
2022-12-18T21:23:27.846Z,102755.88
2022-12-18T21:26:15.591Z,102750.59
2022-12-18T21:28:44.694Z,102747.02
2022-12-18T21:31:14.150Z,102746.01
2022-12-18T21:33:43.481Z,102742.00
2022-12-18T21:36:13.164Z,102733.69
2022-12-18T21:38:42.394Z,102729.02
2022-12-18T21:41:36.307Z,102726.53
2022-12-18T21:44:08.129Z,102719.04
2022-12-18T21:46:38.446Z,102710.77
2022-12-18T21:49:08.723Z,102702.02
2022-12-18T21:51:38.528Z,102694.41
2022-12-18T21:54:07.631Z,102690.75
2022-12-18T21:56:50.768Z,102685.55
2022-12-18T21:59:20.467Z,102675.27
2022-12-18T22:01:50.559Z,102670.81
2022-12-18T22:04:20.408Z,102663.94
2022-12-18T22:06:50.962Z,102659.02
2022-12-18T22:09:20.516Z,102652.54
2022-12-18T22:11:50.100Z,102648.28
2022-12-18T22:14:19.399Z,102652.42
2022-12-18T22:16:49.385Z,102649.42
2022-12-18T22:19:19.046Z,102645.78
2022-12-18T22:21:48.604Z,102647.83
2022-12-18T22:24:18.541Z,102643.98
2022-12-18T22:26:49.256Z,102644.10
2022-12-18T22:29:36.807Z,102645.70
2022-12-18T22:32:07.222Z,102647.05
2022-12-18T22:34:37.005Z,102651.91
2022-12-18T22:37:06.815Z,102650.32
2022-12-18T22:39:35.958Z,102649.61
2022-12-18T22:42:05.330Z,102651.61
2022-12-18T22:44:34.418Z,102648.42
2022-12-18T22:47:06.100Z,102643.33
2022-12-18T22:49:36.565Z,102642.17
2022-12-18T22:52:07.059Z,102639.80
2022-12-18T22:54:36.226Z,102639.80
2022-12-18T22:57:05.934Z,102641.95
2022-12-18T22:59:35.338Z,102647.10
2022-12-18T23:02:04.509Z,102638.67
2022-12-18T23:04:36.782Z,102632.65
2022-12-18T23:07:06.404Z,102637.41
2022-12-18T23:09:35.876Z,102640.81
2022-12-18T23:12:05.750Z,102639.07
2022-12-18T23:14:35.151Z,102635.59
2022-12-18T23:17:04.234Z,102629.99
2022-12-18T23:19:33.800Z,102630.69
2022-12-18T23:22:05.123Z,102636.11
2022-12-18T23:24:37.785Z,102636.09
2022-12-18T23:27:11.456Z,102634.97
2022-12-18T23:29:41.690Z,102635.86
2022-12-18T23:32:10.832Z,102632.33
2022-12-18T23:34:40.022Z,102625.55
2022-12-18T23:37:08.817Z,102620.46
2022-12-18T23:39:38.097Z,102630.85
2022-12-18T23:42:07.344Z,102626.70
2022-12-18T23:44:36.333Z,102631.70
2022-12-18T23:47:06.701Z,102625.93
2022-12-18T23:49:35.548Z,102622.73
2022-12-18T23:52:05.197Z,102619.92
2022-12-18T23:54:34.437Z,102623.64
2022-12-18T23:57:03.468Z,102628.96
2022-12-18T23:59:32.925Z,102627.98
